Woodsetts, United Kingdom
Current Conditions -  °F | °C
As of 2:20 AM on Sunday 26 Oct 2014 (Local Time) from EGCN Reporting Station
Broken Clouds Broken Clouds  
Wind Chill: 54°   Ceiling: 4400
Heat Index: 54°   Visibility: 6mi
Dew Point: 46°   Wind: 18mph
Humidity: 77%   Direction: 210°SSW
Pressure: 30.03"   Gusts: NA
Location:  53.35°N, 1.17°W
Report Text: EGCN 260120Z 21016KT 9999 FEW037 BKN044 12/08 Q1017
Loading
Personal Weather Stations






























Interactive Weather Map New forecast layout! Learn more

10-Day Weather Forecast

Advertisements
Track Severe Weather on mobile